To NAV CANADA Home Page Login to a new session Search on AWWS site Feedback and Comments Disclaimer Vers la page française équivalente Tips FAQ What's new on the site To the Forecasts and Observations / NOTAM section To "File a Flight Plan" website Publications and other links Update of the User's profile FIC Telephone Numbers My Weather Data Folder Route Weather Data Regional Weather Data Local Weather Data To the Forecasts and Observations / NOTAM section
Request Generated 05/29/2015 at 22:11:44 UTC . Weather information available at that time is displayed.

METAR/TAF

RED DEER/RED DEER REGIONAL/AB    

METAR CYQF 292200Z 15015KT 15SM OVC060 15/01 A3018 RMK SC8 SLP239
DENSITY ALT 3300FT=
METAR CYQF 292100Z 14012G21KT 15SM OVC060 15/01 A3019 RMK SC8 SLP242
DENSITY ALT 3300FT=
METAR CYQF 292000Z 14015KT 15SM OVC060 14/M00 A3021 RMK SC8 SLP249
DENSITY ALT 3100FT=

TAF CYQF 291738Z 2918/3006 13015G25KT P6SM BKN060 BKN100
FM292100 13015G25KT P6SM BKN060 BKN120 TEMPO 2921/3006 P6SM -SHRA
OVC040
BECMG 3001/3003 13010KT
RMK NXT FCST BY 300000Z=
Your time UTC time
Weather data provided by Environment Canada and NAV CANADA